Time;durP1;ratioP1;P1;durP2;ratioP2;P2;SDS_P1;SDS_P2;PMS_P1;PMS_P2;Temp;Humidity;BMP_temperature;BMP_pressure;BME280_temperature;BME280_humidity;BME280_pressure;Samples;Min_cycle;Max_cycle;Signal;HPM_P1;HPM_P2
2021/09/14 00:02:49;;;;;;;7.23;6.50;;;19.20;99.90;;;;;;10178852;29;20257;-85
2021/09/14 00:07:51;;;;;;;7.37;6.87;;;19.20;99.90;;;;;;10173037;29;20230;-85
2021/09/14 00:12:55;;;;;;;7.10;6.60;;;19.10;99.90;;;;;;10175502;29;20659;-86
2021/09/14 00:17:57;;;;;;;6.97;6.40;;;19.00;99.90;;;;;;10171758;29;20213;-84
2021/09/14 00:22:59;;;;;;;6.87;6.37;;;19.00;99.90;;;;;;10175130;29;20242;-85
2021/09/14 00:28:04;;;;;;;7.17;6.50;;;19.00;99.90;;;;;;10181667;29;20631;-84
2021/09/14 00:33:06;;;;;;;7.27;6.57;;;19.00;99.90;;;;;;10176414;29;20206;-84
2021/09/14 00:38:08;;;;;;;7.80;7.03;;;19.00;99.90;;;;;;10188666;29;20210;-84
2021/09/14 00:43:18;;;;;;;7.50;6.80;;;18.90;99.90;;;;;;10190554;29;20218;-84
2021/09/14 00:48:21;;;;;;;7.57;6.90;;;18.90;99.90;;;;;;10198929;29;20693;-85
2021/09/14 00:53:24;;;;;;;7.43;6.87;;;18.90;99.90;;;;;;10210458;29;20645;-84
2021/09/14 00:58:27;;;;;;;7.40;6.80;;;18.90;99.90;;;;;;10171040;28;20646;-85
2021/09/14 01:03:30;;;;;;;7.37;6.77;;;18.90;99.90;;;;;;10187287;28;20241;-84
2021/09/14 01:08:34;;;;;;;7.30;6.80;;;18.90;99.90;;;;;;10208689;29;20210;-86
2021/09/14 01:13:37;;;;;;;8.80;7.10;;;18.90;99.90;;;;;;10212043;29;20608;-86
2021/09/14 01:18:40;;;;;;;7.80;7.10;;;18.90;99.90;;;;;;10216160;29;20678;-84
2021/09/14 01:23:43;;;;;;;8.10;7.50;;;18.80;99.90;;;;;;10201464;29;20238;-86
2021/09/14 01:28:46;;;;;;;8.33;7.47;;;18.80;99.90;;;;;;10204309;29;20726;-85
2021/09/14 01:33:49;;;;;;;7.80;7.20;;;18.80;99.90;;;;;;10198830;29;20234;-84
2021/09/14 01:38:53;;;;;;;7.50;7.00;;;18.80;99.90;;;;;;10207675;29;20293;-84
2021/09/14 01:43:56;;;;;;;7.67;6.43;;;18.70;99.90;;;;;;10176544;29;20262;-84
2021/09/14 01:48:58;;;;;;;7.80;7.30;;;18.70;99.90;;;;;;10186856;29;20210;-85
2021/09/14 01:54:03;;;;;;;7.67;6.97;;;18.70;99.90;;;;;;10205783;29;20226;-84
2021/09/14 01:59:05;;;;;;;9.10;7.53;;;18.60;99.90;;;;;;10203205;28;20218;-86
2021/09/14 02:04:16;;;;;;;8.37;7.57;;;18.60;99.90;;;;;;10199606;29;20597;-86
2021/09/14 03:03:20;;;;;;;8.30;7.50;;;18.20;99.90;;;;;;10169215;29;20238;-85
2021/09/14 03:08:22;;;;;;;7.77;7.17;;;18.20;99.90;;;;;;10201943;29;20221;-83
2021/09/14 03:13:27;;;;;;;8.33;7.73;;;18.20;99.90;;;;;;10179569;29;20266;-83
2021/09/14 03:18:30;;;;;;;8.90;7.10;;;18.30;99.90;;;;;;10192682;29;20238;-82
2021/09/14 03:23:33;;;;;;;8.33;7.73;;;18.30;99.90;;;;;;10178127;29;20248;-83
2021/09/14 03:28:37;;;;;;;8.90;8.20;;;18.30;99.90;;;;;;10179479;29;20218;-85
2021/09/14 03:33:40;;;;;;;8.10;7.40;;;18.30;99.90;;;;;;10190773;29;20230;-86
2021/09/14 03:38:44;;;;;;;12.10;7.43;;;18.30;99.90;;;;;;10165246;29;20210;-85
2021/09/14 03:43:48;;;;;;;7.87;7.17;;;18.30;99.90;;;;;;10199498;29;20244;-86
2021/09/14 03:48:50;;;;;;;8.50;7.80;;;18.40;99.90;;;;;;10184262;29;20207;-85
2021/09/14 03:53:54;;;;;;;8.40;7.70;;;18.30;99.90;;;;;;10152225;29;20230;-86
2021/09/14 03:58:58;;;;;;;8.57;7.87;;;18.40;99.90;;;;;;10198625;29;20206;-87
2021/09/14 04:04:06;;;;;;;7.77;7.17;;;18.40;99.90;;;;;;10177689;29;20237;-85
2021/09/14 04:09:10;;;;;;;9.97;7.20;;;18.30;99.90;;;;;;10199119;29;20573;-85
2021/09/14 04:14:32;;;;;;;7.77;7.07;;;18.30;99.90;;;;;;10183797;29;20276;-85
2021/09/14 04:19:36;;;;;;;7.67;7.17;;;18.30;99.90;;;;;;10208248;29;20213;-85
2021/09/14 04:24:40;;;;;;;8.10;7.60;;;18.20;99.90;;;;;;10192436;29;20242;-85
2021/09/14 04:29:46;;;;;;;8.40;7.80;;;18.20;99.90;;;;;;10208705;29;20245;-85
2021/09/14 04:34:48;;;;;;;9.37;8.67;;;18.20;99.90;;;;;;10183946;29;20280;-84
2021/09/14 04:39:51;;;;;;;9.33;8.63;;;18.10;99.90;;;;;;10184422;29;20237;-84
2021/09/14 04:44:55;;;;;;;9.50;8.60;;;18.10;99.90;;;;;;10216058;28;20246;-86
2021/09/14 04:49:58;;;;;;;9.30;8.50;;;18.10;99.90;;;;;;10203170;29;20234;-86
2021/09/14 04:55:00;;;;;;;8.63;8.03;;;18.00;99.90;;;;;;10200040;29;20230;-86
2021/09/14 05:00:06;;;;;;;8.67;8.07;;;18.00;99.90;;;;;;10216344;28;20210;-86
2021/09/14 05:05:11;;;;;;;8.83;8.13;;;18.00;99.90;;;;;;10181651;29;20249;-84
2021/09/14 05:10:13;;;;;;;8.40;7.67;;;18.00;99.90;;;;;;10205049;29;20228;-85
2021/09/14 05:15:23;;;;;;;9.20;8.50;;;18.00;99.90;;;;;;10176233;29;20273;-84
2021/09/14 05:20:46;;;;;;;10.00;9.30;;;17.90;99.90;;;;;;10185385;28;20241;-84
2021/09/14 05:25:49;;;;;;;9.60;8.83;;;17.90;99.90;;;;;;10197130;29;20731;-86
2021/09/14 05:30:52;;;;;;;9.67;8.87;;;17.90;99.90;;;;;;10199761;29;20218;-85
2021/09/14 05:35:57;;;;;;;9.33;8.63;;;17.90;99.90;;;;;;10188061;29;20227;-86
2021/09/14 05:40:59;;;;;;;10.00;9.30;;;18.00;99.90;;;;;;10185142;29;20226;-85
2021/09/14 05:46:07;;;;;;;10.00;9.30;;;18.00;99.90;;;;;;10201727;28;20234;-85
2021/09/14 05:51:11;;;;;;;10.00;9.20;;;18.10;99.90;;;;;;10188531;29;20210;-85
2021/09/14 05:56:21;;;;;;;8.50;7.80;;;18.10;99.90;;;;;;10170177;29;20226;-85
2021/09/14 06:01:25;;;;;;;10.73;9.93;;;18.10;99.90;;;;;;10174767;29;20575;-85
2021/09/14 06:06:28;;;;;;;10.57;9.77;;;18.20;99.90;;;;;;10196312;29;20337;-85
2021/09/14 06:11:30;;;;;;;9.10;8.40;;;18.20;99.90;;;;;;10183123;29;20238;-84
2021/09/14 06:16:34;;;;;;;10.40;9.50;;;18.30;99.90;;;;;;10174061;29;20241;-84
2021/09/14 06:21:38;;;;;;;10.50;9.70;;;18.30;99.90;;;;;;10150935;29;20214;-85
2021/09/14 06:26:42;;;;;;;9.67;8.83;;;18.40;99.90;;;;;;10243540;28;20694;-86
2021/09/14 06:31:48;;;;;;;10.00;9.30;;;18.40;99.90;;;;;;10150056;28;20210;-85
2021/09/14 06:37:10;;;;;;;9.80;9.00;;;18.50;99.90;;;;;;10173119;29;20310;-85
2021/09/14 06:42:12;;;;;;;11.20;10.13;;;18.60;99.90;;;;;;10187301;29;20298;-86
2021/09/14 06:47:19;;;;;;;9.50;8.70;;;18.70;99.90;;;;;;10172043;29;20238;-85
2021/09/14 06:52:21;;;;;;;11.03;10.03;;;18.80;99.90;;;;;;10178064;29;20211;-86
2021/09/14 06:57:23;;;;;;;10.93;9.90;;;18.90;99.90;;;;;;10193733;29;20280;-85
2021/09/14 07:02:27;;;;;;;10.43;9.43;;;18.90;99.90;;;;;;10189578;28;20226;-85
2021/09/14 07:07:29;;;;;;;11.10;10.20;;;19.00;99.90;;;;;;10216858;28;20571;-85
2021/09/14 07:12:32;;;;;;;11.20;10.20;;;19.10;99.90;;;;;;10235175;28;20202;-85
2021/09/14 07:17:37;;;;;;;12.27;11.10;;;19.30;99.90;;;;;;10285721;28;20241;-85
2021/09/14 07:22:40;;;;;;;13.77;12.30;;;19.30;99.90;;;;;;10261883;28;20240;-85
2021/09/14 07:27:42;;;;;;;11.53;10.60;;;19.40;99.90;;;;;;10264489;28;20317;-85
2021/09/14 07:32:45;;;;;;;10.33;9.37;;;19.40;99.90;;;;;;10272488;28;20211;-86
2021/09/14 07:37:47;;;;;;;10.50;9.50;;;19.60;99.90;;;;;;10279799;28;20225;-85
2021/09/14 07:42:50;;;;;;;10.63;9.53;;;19.60;99.90;;;;;;10269438;28;20203;-85
2021/09/14 07:47:53;;;;;;;10.83;9.83;;;19.70;99.90;;;;;;10290025;28;20233;-85
2021/09/14 07:52:55;;;;;;;10.00;9.17;;;19.80;99.90;;;;;;10217775;28;20210;-86
2021/09/14 07:57:58;;;;;;;10.63;9.83;;;19.80;99.90;;;;;;10209921;28;20202;-85
2021/09/14 08:03:02;;;;;;;9.80;9.10;;;19.90;99.90;;;;;;10197153;29;20234;-86
2021/09/14 08:08:04;;;;;;;9.83;8.93;;;20.00;99.90;;;;;;10254598;28;20207;-85
2021/09/14 08:13:07;;;;;;;7.97;7.47;;;20.10;99.90;;;;;;10268111;28;20216;-86
2021/09/14 08:18:10;;;;;;;8.23;7.63;;;20.20;99.90;;;;;;10298025;28;20198;-86
2021/09/14 08:23:12;;;;;;;7.67;7.10;;;20.30;99.90;;;;;;10269633;28;20226;-85
2021/09/14 08:28:15;;;;;;;7.60;6.90;;;20.40;99.90;;;;;;10243150;28;20211;-85
2021/09/14 08:33:19;;;;;;;9.33;8.40;;;20.50;99.90;;;;;;10274721;28;20260;-85
2021/09/14 08:38:21;;;;;;;7.80;7.30;;;20.60;99.90;;;;;;10293017;28;20210;-85
2021/09/14 08:43:23;;;;;;;8.30;7.70;;;20.70;99.90;;;;;;10291290;28;20246;-85
2021/09/14 08:48:27;;;;;;;8.60;7.90;;;20.80;99.90;;;;;;10236656;28;20203;-85
2021/09/14 08:53:31;;;;;;;8.37;7.70;;;20.90;99.90;;;;;;10255391;28;20580;-85
2021/09/14 08:58:33;;;;;;;7.90;7.30;;;20.90;99.90;;;;;;10237942;28;20216;-85
2021/09/14 09:03:38;;;;;;;7.20;6.70;;;21.00;99.90;;;;;;10234223;28;20769;-85
2021/09/14 09:08:40;;;;;;;7.40;6.90;;;21.10;99.90;;;;;;10215179;28;20678;-86
2021/09/14 09:13:51;;;;;;;7.70;7.17;;;21.20;99.90;;;;;;10220335;28;20313;-85
2021/09/14 09:18:57;;;;;;;7.10;6.50;;;21.20;99.90;;;;;;10176504;29;20296;-87
2021/09/14 09:24:02;;;;;;;7.53;7.03;;;21.30;99.90;;;;;;10257409;28;20238;-86
2021/09/14 09:29:07;;;;;;;7.30;6.70;;;21.30;99.90;;;;;;10174003;29;20305;-85
2021/09/14 09:34:12;;;;;;;6.93;6.43;;;21.40;99.90;;;;;;10201085;29;20221;-85
2021/09/14 09:39:16;;;;;;;7.20;6.73;;;21.50;99.90;;;;;;10203727;28;20643;-85
2021/09/14 09:44:18;;;;;;;6.67;6.17;;;21.60;99.90;;;;;;10178071;28;20230;-86
2021/09/14 09:49:23;;;;;;;7.97;7.40;;;21.80;99.90;;;;;;10206466;29;20209;-86
2021/09/14 09:54:26;;;;;;;7.03;6.43;;;22.20;99.90;;;;;;10177761;29;20238;-86
2021/09/14 09:59:28;;;;;;;7.40;6.90;;;22.60;99.90;;;;;;10190042;29;20210;-86
2021/09/14 10:04:41;;;;;;;5.83;5.33;;;22.90;99.90;;;;;;10194346;29;20669;-85
2021/09/14 10:09:51;;;;;;;6.07;5.67;;;23.00;99.90;;;;;;10194780;29;20210;-86
2021/09/14 10:15:01;;;;;;;7.30;6.70;;;23.00;99.90;;;;;;10170134;29;20249;-85
2021/09/14 10:20:13;;;;;;;6.30;5.90;;;23.10;99.90;;;;;;10160369;28;20741;-86
2021/09/14 10:25:22;;;;;;;5.70;5.30;;;23.10;99.90;;;;;;10177639;28;20344;-86
2021/09/14 10:30:25;;;;;;;7.20;6.60;;;23.10;99.90;;;;;;10204332;28;20233;-86
2021/09/14 10:35:31;;;;;;;6.50;6.10;;;23.10;99.90;;;;;;10272840;28;20257;-85
2021/09/14 10:40:44;;;;;;;6.80;6.30;;;23.10;99.90;;;;;;10271292;28;20257;-85
2021/09/14 10:45:47;;;;;;;6.87;6.37;;;23.10;99.90;;;;;;10193184;28;20253;-86
2021/09/14 10:50:53;;;;;;;6.90;6.40;;;23.10;99.90;;;;;;10199120;29;20241;-86
2021/09/14 10:55:57;;;;;;;7.37;6.80;;;23.00;99.90;;;;;;10184898;29;20218;-86
2021/09/14 11:00:59;;;;;;;8.53;7.73;;;23.00;99.90;;;;;;10192555;28;20308;-85
2021/09/14 11:06:03;;;;;;;9.20;8.50;;;23.00;99.90;;;;;;10201637;28;20241;-85
2021/09/14 11:11:05;;;;;;;7.90;7.40;;;23.00;99.90;;;;;;10161210;29;20696;-85
2021/09/14 11:16:07;;;;;;;7.93;7.43;;;23.00;99.90;;;;;;10228508;28;20316;-86
2021/09/14 11:21:12;;;;;;;7.77;7.07;;;23.10;99.90;;;;;;10156506;29;20237;-85
2021/09/14 11:26:16;;;;;;;8.93;8.03;;;23.20;99.90;;;;;;10159981;28;20736;-86
2021/09/14 11:31:21;;;;;;;7.50;7.00;;;23.40;99.90;;;;;;10181551;29;20233;-85
2021/09/14 11:36:26;;;;;;;7.07;6.57;;;23.50;99.90;;;;;;10177858;29;20249;-86
2021/09/14 11:41:33;;;;;;;8.10;7.40;;;23.60;99.90;;;;;;10168015;29;20304;-86
2021/09/14 11:46:35;;;;;;;6.67;6.27;;;23.80;99.90;;;;;;10168728;29;20225;-85
2021/09/14 11:51:41;;;;;;;6.73;6.23;;;23.80;99.90;;;;;;10135874;29;20545;-86
2021/09/14 11:56:56;;;;;;;6.27;5.77;;;23.90;99.90;;;;;;10142061;29;20226;-86
2021/09/14 12:01:58;;;;;;;7.27;6.77;;;24.00;99.90;;;;;;10231738;28;20219;-86
2021/09/14 12:07:02;;;;;;;7.10;6.50;;;24.10;99.90;;;;;;10221026;28;20318;-86
2021/09/14 12:12:06;;;;;;;7.83;7.13;;;24.10;99.90;;;;;;10160506;29;20210;-86
2021/09/14 12:17:08;;;;;;;7.87;7.17;;;24.30;99.90;;;;;;10140646;28;20701;-86
2021/09/14 12:22:12;;;;;;;6.93;6.43;;;24.40;99.90;;;;;;10141410;29;20214;-86
2021/09/14 12:27:14;;;;;;;7.20;6.70;;;24.30;99.90;;;;;;10421952;23;20236;-82
2021/09/14 12:32:16;;;;;;;9.03;7.23;;;24.30;99.90;;;;;;10452649;28;20205;-83
2021/09/14 12:37:20;;;;;;;6.50;6.07;;;24.20;99.90;;;;;;10445853;28;20708;-83
2021/09/14 12:42:22;;;;;;;7.40;6.77;;;24.20;99.90;;;;;;10416173;28;20205;-83
2021/09/14 12:47:24;;;;;;;9.33;7.10;;;24.20;99.90;;;;;;10423415;28;20228;-83
2021/09/14 12:52:27;;;;;;;6.87;6.37;;;24.40;99.90;;;;;;10450590;28;20239;-83
2021/09/14 12:57:30;;;;;;;7.90;7.10;;;24.50;99.90;;;;;;10440658;28;20245;-82
2021/09/14 13:02:32;;;;;;;6.90;6.30;;;24.60;99.90;;;;;;10445411;28;20248;-83
2021/09/14 13:07:35;;;;;;;6.07;5.67;;;24.70;99.90;;;;;;10413688;28;20261;-83
2021/09/14 13:12:38;;;;;;;6.60;6.10;;;24.80;99.90;;;;;;10421542;28;20358;-83
2021/09/14 13:17:40;;;;;;;7.73;7.13;;;24.80;99.90;;;;;;10424713;28;20577;-83
2021/09/14 13:22:43;;;;;;;6.60;6.20;;;24.90;99.90;;;;;;10426517;28;20233;-83
2021/09/14 13:27:45;;;;;;;7.13;6.63;;;25.00;99.90;;;;;;10444215;28;20237;-82
2021/09/14 13:32:47;;;;;;;7.20;6.70;;;25.00;99.90;;;;;;10444874;28;20205;-83
2021/09/14 13:37:51;;;;;;;6.50;6.00;;;25.00;99.90;;;;;;10444083;28;20288;-82
2021/09/14 13:42:56;;;;;;;7.40;6.80;;;24.80;99.90;;;;;;10462042;28;20724;-83
2021/09/14 13:47:58;;;;;;;8.00;7.10;;;24.60;99.90;;;;;;10438676;28;20240;-83
2021/09/14 13:53:02;;;;;;;8.00;7.30;;;24.50;99.90;;;;;;10428487;28;20659;-82
2021/09/14 13:58:04;;;;;;;10.70;7.10;;;24.40;99.90;;;;;;10442655;28;20731;-82
2021/09/14 14:03:06;;;;;;;7.10;6.40;;;24.30;99.90;;;;;;10426459;28;20308;-82
2021/09/14 14:08:10;;;;;;;8.43;7.73;;;24.30;99.90;;;;;;10443536;28;20713;-82
2021/09/14 14:13:12;;;;;;;6.90;6.40;;;24.20;99.90;;;;;;10438411;28;20228;-82
2021/09/14 14:18:14;;;;;;;8.77;8.10;;;24.10;99.90;;;;;;10460069;28;20729;-83
2021/09/14 14:23:18;;;;;;;8.80;8.10;;;24.00;99.90;;;;;;10423162;28;20601;-83
2021/09/14 14:28:20;;;;;;;8.43;7.73;;;24.00;99.90;;;;;;10442156;28;20696;-82
2021/09/14 14:33:22;;;;;;;9.73;7.30;;;24.00;99.90;;;;;;10441262;28;20259;-82
2021/09/14 14:38:25;;;;;;;9.33;8.50;;;24.10;99.90;;;;;;10459385;28;20209;-83
2021/09/14 14:43:27;;;;;;;7.33;6.83;;;24.40;99.90;;;;;;10424020;28;20216;-82
2021/09/14 14:48:30;;;;;;;8.47;7.77;;;24.60;99.90;;;;;;10440041;28;20641;-83
2021/09/14 14:53:33;;;;;;;7.30;6.80;;;24.70;99.90;;;;;;10440945;28;20274;-82
2021/09/14 14:58:35;;;;;;;9.63;7.63;;;24.70;99.90;;;;;;10424501;28;20205;-83
2021/09/14 15:03:37;;;;;;;8.33;7.63;;;24.60;99.90;;;;;;10420869;28;20220;-83
2021/09/14 15:08:48;;;;;;;7.47;6.97;;;24.50;99.90;;;;;;10424665;28;20225;-85
2021/09/14 15:13:51;;;;;;;8.20;7.40;;;24.30;99.90;;;;;;10419928;28;20205;-84
2021/09/14 15:18:53;;;;;;;8.77;8.07;;;24.10;99.90;;;;;;10416876;28;20232;-84
2021/09/14 15:23:56;;;;;;;7.73;7.23;;;23.90;99.90;;;;;;10417563;28;20320;-85
2021/09/14 15:29:00;;;;;;;7.47;6.97;;;23.70;99.90;;;;;;10422183;28;20302;-85
2021/09/14 15:34:02;;;;;;;9.10;8.50;;;23.70;99.90;;;;;;10440204;28;20379;-85
2021/09/14 15:39:05;;;;;;;8.27;7.70;;;23.50;99.90;;;;;;10423558;28;20232;-85
2021/09/14 15:44:08;;;;;;;9.70;8.90;;;23.50;99.90;;;;;;10439484;28;20304;-85
2021/09/14 15:49:10;;;;;;;8.57;7.77;;;23.40;99.90;;;;;;10418867;28;20229;-85
2021/09/14 15:54:13;;;;;;;8.30;7.80;;;23.40;99.90;;;;;;10418269;28;20229;-84
2021/09/14 15:59:15;;;;;;;8.30;7.70;;;23.50;99.90;;;;;;10455041;28;20312;-85
2021/09/14 16:04:18;;;;;;;8.95;8.25;;;23.50;99.90;;;;;;10421086;28;20240;-85
2021/09/14 16:09:24;;;;;;;8.90;8.07;;;23.50;99.90;;;;;;10431971;28;20236;-84
2021/09/14 16:14:26;;;;;;;8.67;7.97;;;23.60;99.90;;;;;;10422860;28;20641;-85
2021/09/14 16:19:29;;;;;;;8.80;8.10;;;23.60;99.90;;;;;;10441873;28;20197;-85
2021/09/14 16:24:33;;;;;;;8.13;7.43;;;23.70;99.90;;;;;;10436330;28;20304;-85
2021/09/14 16:29:35;;;;;;;8.73;7.90;;;23.70;99.90;;;;;;10445613;28;20201;-84
2021/09/14 16:34:38;;;;;;;8.73;8.13;;;23.60;99.90;;;;;;10424010;28;20221;-84
2021/09/14 16:39:42;;;;;;;8.80;7.70;;;23.60;99.90;;;;;;10427650;28;20715;-84
2021/09/14 16:44:44;;;;;;;8.70;8.07;;;23.50;99.90;;;;;;10437808;28;20217;-85
2021/09/14 16:49:47;;;;;;;8.67;8.07;;;23.50;99.90;;;;;;10418366;28;20561;-85
2021/09/14 16:54:51;;;;;;;9.27;8.57;;;23.40;99.90;;;;;;10431795;28;20217;-84
2021/09/14 16:59:53;;;;;;;9.60;8.90;;;23.40;99.90;;;;;;10433794;28;20684;-85
2021/09/14 17:04:58;;;;;;;9.70;9.00;;;23.40;99.90;;;;;;10406042;28;20275;-84
2021/09/14 17:10:01;;;;;;;10.40;9.03;;;23.30;99.90;;;;;;10424028;28;20661;-85
2021/09/14 17:15:04;;;;;;;11.93;9.20;;;23.20;99.90;;;;;;10426048;28;20271;-85
2021/09/14 17:20:08;;;;;;;9.27;8.47;;;23.10;99.90;;;;;;10422158;28;20657;-85
2021/09/14 17:25:12;;;;;;;9.50;8.70;;;23.10;99.90;;;;;;10412063;28;20221;-84
2021/09/14 17:30:15;;;;;;;9.90;9.00;;;23.00;99.90;;;;;;10441639;28;20209;-85
2021/09/14 17:35:17;;;;;;;10.30;9.20;;;22.90;99.90;;;;;;10427176;28;20420;-85
2021/09/14 17:40:21;;;;;;;9.77;9.00;;;22.90;99.90;;;;;;10420562;28;20739;-85
2021/09/14 17:45:23;;;;;;;10.17;9.27;;;22.80;99.90;;;;;;10441125;28;20249;-85
2021/09/14 17:50:41;;;;;;;9.30;8.53;;;22.80;99.90;;;;;;10443260;28;20216;-84
2021/09/14 17:56:26;;;;;;;10.63;9.77;;;22.70;99.90;;;;;;10461501;28;20221;-85
2021/09/14 18:01:30;;;;;;;9.73;9.03;;;22.70;99.90;;;;;;10438119;28;20205;-85
2021/09/14 18:06:32;;;;;;;9.70;8.87;;;22.60;99.90;;;;;;10422059;28;20241;-84
2021/09/14 18:11:36;;;;;;;10.83;9.77;;;22.60;99.90;;;;;;10455343;28;20201;-84
2021/09/14 18:16:38;;;;;;;9.70;8.80;;;22.60;99.90;;;;;;10432942;28;20754;-84
2021/09/14 18:21:40;;;;;;;12.83;9.43;;;22.60;99.90;;;;;;10455680;28;20201;-84
2021/09/14 18:26:44;;;;;;;9.60;8.80;;;22.50;99.90;;;;;;10436752;28;20670;-83
2021/09/14 18:31:46;;;;;;;9.87;9.17;;;22.50;99.90;;;;;;10432927;28;20303;-85
2021/09/14 18:36:48;;;;;;;9.50;8.77;;;22.50;99.90;;;;;;10417676;28;20217;-85
2021/09/14 18:41:52;;;;;;;10.17;9.40;;;22.50;99.90;;;;;;10426019;28;20202;-83
2021/09/14 18:46:54;;;;;;;9.50;8.80;;;22.50;99.90;;;;;;10439893;28;20220;-85
2021/09/14 18:51:56;;;;;;;9.23;8.33;;;22.50;99.90;;;;;;10421799;28;20208;-83
2021/09/14 18:57:00;;;;;;;9.63;8.73;;;22.50;99.90;;;;;;10457283;28;20225;-83
2021/09/14 19:02:13;;;;;;;10.80;10.00;;;22.50;99.90;;;;;;10438895;28;20201;-85
2021/09/14 19:07:15;;;;;;;10.00;8.97;;;22.40;99.90;;;;;;10438712;28;20312;-85
2021/09/14 19:12:21;;;;;;;9.87;8.97;;;22.40;99.90;;;;;;10416813;28;20201;-85
2021/09/14 19:17:24;;;;;;;10.47;9.57;;;22.40;99.90;;;;;;10417345;28;20217;-85
2021/09/14 19:22:28;;;;;;;10.43;9.53;;;22.40;99.90;;;;;;10419951;28;20205;-85
2021/09/14 19:27:35;;;;;;;11.20;9.23;;;22.30;99.90;;;;;;10422317;28;20259;-85
2021/09/14 19:32:40;;;;;;;14.97;13.60;;;22.30;99.90;;;;;;10416046;28;20209;-84
2021/09/14 19:37:45;;;;;;;13.03;11.93;;;22.30;99.90;;;;;;10423305;28;20217;-85
2021/09/14 19:42:49;;;;;;;13.73;12.50;;;22.20;99.90;;;;;;10438367;28;20461;-85
2021/09/14 19:47:51;;;;;;;12.50;11.50;;;22.30;99.90;;;;;;10437406;28;20221;-85
2021/09/14 19:52:53;;;;;;;13.00;11.70;;;22.30;99.90;;;;;;10435554;28;20244;-85
2021/09/14 19:57:58;;;;;;;12.00;10.90;;;22.20;99.90;;;;;;10438183;28;20694;-85
2021/09/14 20:03:01;;;;;;;13.50;12.30;;;22.20;99.90;;;;;;10437834;28;20209;-85
2021/09/14 20:08:05;;;;;;;12.80;11.63;;;22.20;99.90;;;;;;10420970;28;20279;-85
2021/09/14 20:13:12;;;;;;;12.20;11.30;;;22.20;99.90;;;;;;10453253;28;20227;-85
2021/09/14 20:18:14;;;;;;;14.67;13.27;;;22.20;99.90;;;;;;10433033;28;20243;-85
2021/09/14 20:23:16;;;;;;;14.60;13.27;;;22.10;99.90;;;;;;10419565;28;20815;-84
2021/09/14 20:28:20;;;;;;;12.67;11.57;;;22.20;99.90;;;;;;10429463;28;20232;-85
2021/09/14 20:33:22;;;;;;;11.33;10.40;;;22.10;99.90;;;;;;10429479;28;20205;-85
2021/09/14 20:38:25;;;;;;;11.03;10.07;;;22.10;99.90;;;;;;10436819;28;20225;-84
2021/09/14 20:43:28;;;;;;;11.53;10.23;;;22.10;99.90;;;;;;10436370;28;20234;-85
2021/09/14 20:48:30;;;;;;;11.77;10.77;;;22.10;99.90;;;;;;10419668;28;20260;-85
2021/09/14 20:53:35;;;;;;;12.97;11.87;;;22.00;99.90;;;;;;10419595;28;20215;-85
2021/09/14 20:58:48;;;;;;;10.57;9.63;;;22.00;99.90;;;;;;10436575;28;20208;-85
2021/09/14 21:03:50;;;;;;;12.67;11.57;;;22.00;99.90;;;;;;10461721;28;20202;-85
2021/09/14 21:08:52;;;;;;;13.93;12.83;;;22.00;99.90;;;;;;10443953;28;20300;-85
2021/09/14 21:13:56;;;;;;;11.57;10.57;;;22.00;99.90;;;;;;10443010;28;20205;-85
2021/09/14 21:18:58;;;;;;;11.80;10.80;;;21.90;99.90;;;;;;10460966;28;20572;-84
2021/09/14 21:24:00;;;;;;;10.67;9.87;;;22.00;99.90;;;;;;10463584;28;20693;-85
2021/09/14 21:29:03;;;;;;;11.30;10.30;;;21.90;99.90;;;;;;10432473;28;20245;-85
2021/09/14 21:34:05;;;;;;;10.80;10.00;;;21.90;99.90;;;;;;10423772;28;20225;-85
2021/09/14 21:39:08;;;;;;;10.33;9.53;;;22.00;99.90;;;;;;10440523;28;20740;-85
2021/09/14 21:44:15;;;;;;;10.37;9.67;;;21.90;99.90;;;;;;10420084;28;20229;-85
2021/09/14 21:49:22;;;;;;;10.30;9.57;;;21.90;99.90;;;;;;10421404;28;20233;-85
2021/09/14 21:54:24;;;;;;;10.77;9.77;;;21.90;99.90;;;;;;10418131;28;20241;-85
2021/09/14 21:59:30;;;;;;;9.60;8.93;;;21.90;99.90;;;;;;10449685;28;20335;-85
2021/09/14 22:04:34;;;;;;;8.60;7.87;;;21.80;99.90;;;;;;10415405;28;20229;-85
2021/09/14 22:09:37;;;;;;;7.73;7.23;;;21.80;99.90;;;;;;10415607;28;20279;-85
2021/09/14 22:14:44;;;;;;;8.10;7.43;;;21.80;99.90;;;;;;10416429;28;20314;-85
2021/09/14 22:19:46;;;;;;;9.87;8.33;;;21.70;99.90;;;;;;10427650;28;20214;-85
2021/09/14 22:24:48;;;;;;;7.50;6.80;;;21.70;99.90;;;;;;10420309;28;20237;-85
2021/09/14 22:29:52;;;;;;;5.90;5.50;;;21.70;99.90;;;;;;10436462;28;20320;-85
2021/09/14 22:34:54;;;;;;;6.60;6.00;;;21.60;99.90;;;;;;10436379;28;20240;-85
2021/09/14 22:39:57;;;;;;;6.40;5.87;;;21.70;99.90;;;;;;10433545;28;20209;-85
2021/09/14 22:45:00;;;;;;;5.60;5.10;;;21.60;99.90;;;;;;10417853;28;20232;-85
2021/09/14 22:50:02;;;;;;;6.40;5.10;;;21.60;99.90;;;;;;10435878;28;20673;-85
2021/09/14 22:55:05;;;;;;;6.97;5.17;;;21.60;99.90;;;;;;10428907;28;20232;-85
2021/09/14 23:00:10;;;;;;;5.47;4.77;;;21.60;99.90;;;;;;10414178;28;20209;-85
2021/09/14 23:05:13;;;;;;;5.03;4.63;;;21.60;99.90;;;;;;10416628;28;20259;-85
2021/09/14 23:10:16;;;;;;;5.10;4.80;;;21.60;99.90;;;;;;10435645;28;20233;-85
2021/09/14 23:15:20;;;;;;;4.93;4.53;;;21.50;99.90;;;;;;10426472;28;20233;-85
2021/09/14 23:20:22;;;;;;;4.90;4.23;;;21.60;99.90;;;;;;10436154;28;20225;-85
2021/09/14 23:25:29;;;;;;;4.80;4.50;;;21.50;99.90;;;;;;10436001;28;20291;-85
2021/09/14 23:30:32;;;;;;;5.43;5.03;;;21.50;99.90;;;;;;10413699;28;20752;-85
2021/09/14 23:35:34;;;;;;;5.53;5.10;;;21.50;99.90;;;;;;10431902;28;20256;-85
2021/09/14 23:40:36;;;;;;;5.03;4.73;;;21.50;99.90;;;;;;10437152;28;20284;-85
2021/09/14 23:45:40;;;;;;;5.10;4.70;;;21.50;99.90;;;;;;10436486;28;20237;-85
2021/09/14 23:50:42;;;;;;;5.10;4.70;;;21.50;99.90;;;;;;10435606;28;20221;-85
2021/09/14 23:55:44;;;;;;;10.60;5.57;;;21.50;99.90;;;;;;10420267;28;20696;-85
